Time;durP1;ratioP1;P1;durP2;ratioP2;P2;SDS_P1;SDS_P2;PMS_P1;PMS_P2;Temp;Humidity;BMP_temperature;BMP_pressure;BME280_temperature;BME280_humidity;BME280_pressure;Samples;Min_cycle;Max_cycle;Signal;HPM_P1;HPM_P2
2021/09/16 00:00:25;;;;;;;8.93;5.85;;;;;;;18.37;42.30;94152.50;4986052;28;20030;-76
2021/09/16 00:02:50;;;;;;;6.95;5.35;;;;;;;18.30;42.38;94128.13;4989420;28;20038;-76
2021/09/16 00:05:17;;;;;;;6.18;5.28;;;;;;;18.37;42.20;94143.66;4985117;28;20053;-76
2021/09/16 00:07:46;;;;;;;7.05;5.22;;;;;;;18.27;42.48;94142.31;4984908;28;20917;-76
2021/09/16 00:10:12;;;;;;;7.57;6.00;;;;;;;18.22;42.61;94144.47;4988497;28;20026;-76
2021/09/16 00:12:38;;;;;;;11.13;7.05;;;;;;;18.12;42.54;94131.59;4984667;28;20112;-76
2021/09/16 00:15:05;;;;;;;6.88;5.70;;;;;;;18.06;42.74;94132.97;4988150;28;20087;-76
2021/09/16 00:17:31;;;;;;;7.57;5.93;;;;;;;17.93;43.28;94127.75;4983130;28;20078;-76
2021/09/16 00:19:56;;;;;;;8.25;6.00;;;;;;;17.96;43.47;94153.94;4988416;28;20964;-75
2021/09/16 00:22:22;;;;;;;6.28;5.68;;;;;;;17.86;43.21;94148.28;4982054;28;20046;-76
2021/09/16 00:24:47;;;;;;;8.75;5.50;;;;;;;17.94;42.99;94145.41;4986085;28;20030;-76
2021/09/16 00:27:13;;;;;;;8.80;6.43;;;;;;;18.37;42.06;94162.50;4983295;28;20038;-76
2021/09/16 00:29:38;;;;;;;8.70;6.93;;;;;;;18.09;42.98;94168.03;4986485;28;20416;-76
2021/09/16 00:32:04;;;;;;;8.63;6.57;;;;;;;17.92;43.34;94161.13;4984837;28;20053;-76
2021/09/16 00:34:29;;;;;;;9.60;7.47;;;;;;;17.71;43.47;94147.19;4987140;28;20034;-76
2021/09/16 00:36:54;;;;;;;8.45;6.70;;;;;;;17.80;43.57;94171.19;4988110;28;20735;-76
2021/09/16 00:39:20;;;;;;;11.57;7.65;;;;;;;17.81;43.96;94170.84;4982771;28;20584;-76
2021/09/16 00:41:45;;;;;;;10.52;7.85;;;;;;;17.80;43.49;94166.59;4990802;28;20045;-75
2021/09/16 00:44:10;;;;;;;8.07;5.63;;;;;;;17.81;43.45;94165.47;4980537;28;20121;-75
2021/09/16 00:46:36;;;;;;;7.45;6.00;;;;;;;17.74;43.40;94156.47;4986875;28;20046;-75
2021/09/16 00:49:04;;;;;;;6.25;5.57;;;;;;;17.65;43.52;94150.50;4990409;28;20052;-77
2021/09/16 00:51:30;;;;;;;12.20;6.07;;;;;;;17.64;43.56;94157.78;4985465;28;20022;-75
2021/09/16 00:53:58;;;;;;;6.20;5.60;;;;;;;17.58;43.85;94161.88;4984202;28;20509;-75
2021/09/16 00:56:25;;;;;;;5.95;5.32;;;;;;;17.53;43.82;94151.38;4982756;28;20031;-76
2021/09/16 00:58:53;;;;;;;7.45;5.65;;;;;;;17.66;43.17;94154.72;4986586;28;20089;-76
2021/09/16 01:01:18;;;;;;;5.88;5.25;;;;;;;17.43;43.83;94141.13;4983673;28;20041;-77
2021/09/16 01:03:45;;;;;;;7.97;6.15;;;;;;;17.49;43.84;94145.13;4987315;28;20037;-75
2021/09/16 01:06:11;;;;;;;7.50;6.50;;;;;;;17.39;43.49;94135.69;4983618;28;20125;-76
2021/09/16 01:08:37;;;;;;;9.32;6.53;;;;;;;17.53;43.56;94146.00;4994057;28;20141;-75
2021/09/16 01:11:03;;;;;;;7.75;6.68;;;;;;;17.51;43.59;94137.47;4984294;28;20092;-75
2021/09/16 01:13:29;;;;;;;9.50;6.00;;;;;;;17.46;43.55;94129.69;4992838;28;20505;-75
2021/09/16 01:15:57;;;;;;;9.20;5.68;;;;;;;17.56;43.26;94148.75;4990221;28;20422;-75
2021/09/16 01:18:23;;;;;;;6.63;5.25;;;;;;;17.48;43.88;94148.94;4988644;28;20056;-75
2021/09/16 01:20:54;;;;;;;7.85;5.65;;;;;;;17.38;43.80;94133.34;4990501;28;20109;-75
2021/09/16 01:23:23;;;;;;;10.60;5.53;;;;;;;17.41;43.67;94132.63;4995199;28;20041;-77
2021/09/16 01:25:49;;;;;;;8.05;4.93;;;;;;;17.38;43.96;94138.72;4990949;28;20037;-77
2021/09/16 01:28:14;;;;;;;6.45;5.15;;;;;;;17.26;43.67;94131.50;4989297;28;20048;-77
2021/09/16 01:30:40;;;;;;;9.20;5.75;;;;;;;17.07;43.83;94124.09;4987066;28;20062;-77
2021/09/16 01:33:05;;;;;;;7.05;5.97;;;;;;;17.26;43.88;94146.88;4988933;28;20073;-77
2021/09/16 01:35:31;;;;;;;11.25;6.53;;;;;;;17.16;43.66;94130.13;4985853;28;20465;-76
2021/09/16 01:37:57;;;;;;;7.40;5.85;;;;;;;17.14;44.01;94137.75;4987524;28;20099;-76
2021/09/16 01:40:23;;;;;;;7.03;5.75;;;;;;;17.16;44.42;94148.94;4986915;28;20046;-77
2021/09/16 01:42:49;;;;;;;8.70;7.20;;;;;;;17.02;44.37;94129.75;4985773;28;20034;-77
2021/09/16 01:45:19;;;;;;;6.93;6.10;;;;;;;17.14;44.44;94143.13;4986410;28;23568;-76
2021/09/16 01:47:46;;;;;;;7.10;6.40;;;;;;;17.10;45.11;94149.53;4992493;28;20049;-77
2021/09/16 01:50:13;;;;;;;12.95;7.22;;;;;;;17.00;45.21;94142.75;4992131;28;20705;-76
2021/09/16 01:52:39;;;;;;;8.23;6.65;;;;;;;17.34;44.32;94137.84;4986164;28;20038;-76
2021/09/16 01:55:05;;;;;;;6.30;5.70;;;;;;;17.10;45.08;94144.16;4983889;28;20036;-76
2021/09/16 01:57:31;;;;;;;9.27;6.25;;;;;;;17.06;45.36;94149.41;4990272;28;20030;-76
2021/09/16 01:59:56;;;;;;;8.57;6.35;;;;;;;17.03;45.22;94143.97;4988781;28;20543;-76
2021/09/16 02:02:21;;;;;;;10.25;7.10;;;;;;;16.93;45.35;94118.38;4989776;28;21098;-76
2021/09/16 02:04:47;;;;;;;9.05;7.03;;;;;;;17.11;44.97;94135.72;4986828;28;20512;-76
2021/09/16 02:07:12;;;;;;;8.27;7.43;;;;;;;16.91;45.59;94115.28;4985652;28;20050;-76
2021/09/16 02:09:38;;;;;;;7.78;6.93;;;;;;;16.98;45.93;94141.53;4990796;28;20034;-77
2021/09/16 02:12:03;;;;;;;9.07;7.15;;;;;;;16.80;45.61;94108.84;4984900;28;20042;-77
2021/09/16 02:14:29;;;;;;;7.57;6.85;;;;;;;16.85;45.74;94122.03;4991078;28;20038;-76
2021/09/16 02:16:54;;;;;;;9.75;7.50;;;;;;;17.08;45.32;94141.78;4986071;28;20104;-76
2021/09/16 02:19:20;;;;;;;8.55;6.90;;;;;;;17.01;45.64;94141.59;4988703;28;20084;-77
2021/09/16 02:21:45;;;;;;;11.40;7.72;;;;;;;16.98;45.54;94128.88;4989564;28;20034;-76
2021/09/16 02:24:13;;;;;;;8.38;6.85;;;;;;;16.98;45.86;94134.25;4986118;28;20037;-79
2021/09/16 02:26:38;;;;;;;12.40;7.63;;;;;;;16.91;45.94;94134.06;4990896;28;20374;-76
2021/09/16 02:29:03;;;;;;;8.88;7.50;;;;;;;16.93;45.69;94118.38;4986224;28;20045;-76
2021/09/16 02:31:29;;;;;;;8.73;7.63;;;;;;;16.79;45.69;94098.44;4989696;28;20461;-77
2021/09/16 02:33:54;;;;;;;8.93;7.57;;;;;;;16.92;45.68;94122.19;4989811;28;20042;-76
2021/09/16 02:36:20;;;;;;;7.82;6.75;;;;;;;16.87;46.11;94122.44;4989451;28;20023;-77
2021/09/16 02:38:45;;;;;;;8.88;7.88;;;;;;;16.80;46.51;94129.53;4988103;28;20108;-77
2021/09/16 02:41:11;;;;;;;8.05;6.85;;;;;;;16.86;46.20;94123.59;4990293;28;20591;-76
2021/09/16 02:43:36;;;;;;;12.75;10.02;;;;;;;16.92;46.11;94130.25;4985403;28;20112;-77
2021/09/16 02:46:02;;;;;;;11.65;7.35;;;;;;;16.85;45.95;94121.22;4989488;28;20029;-77
2021/09/16 02:48:28;;;;;;;8.20;7.38;;;;;;;16.90;45.91;94135.19;4995194;28;20030;-76
2021/09/16 02:50:53;;;;;;;8.10;7.30;;;;;;;16.89;45.90;94133.63;4989055;28;20048;-77
2021/09/16 02:53:18;;;;;;;9.85;7.53;;;;;;;16.76;46.34;94140.19;4988782;28;20497;-77
2021/09/16 02:55:44;;;;;;;9.48;7.53;;;;;;;16.71;46.59;94143.13;4989975;28;20038;-77
2021/09/16 02:58:09;;;;;;;9.23;7.40;;;;;;;16.68;46.59;94147.28;4988475;28;20034;-79
2021/09/16 03:00:35;;;;;;;10.18;8.43;;;;;;;16.69;46.41;94146.16;4991013;28;20088;-76
2021/09/16 03:03:00;;;;;;;10.98;8.98;;;;;;;16.69;46.38;94145.38;4988322;28;20038;-77
2021/09/16 03:05:26;;;;;;;13.45;8.35;;;;;;;16.61;46.40;94127.53;4988303;28;20049;-77
2021/09/16 03:07:51;;;;;;;11.10;7.70;;;;;;;16.70;46.62;94126.25;4986587;28;20529;-77
2021/09/16 03:10:17;;;;;;;9.77;8.10;;;;;;;16.71;46.49;94132.41;4988722;28;20108;-76
2021/09/16 03:12:42;;;;;;;10.38;8.40;;;;;;;16.72;46.74;94139.34;4988155;28;20034;-77
2021/09/16 03:15:09;;;;;;;14.27;8.73;;;;;;;16.68;46.62;94141.91;4987022;28;20041;-76
2021/09/16 03:17:35;;;;;;;8.20;7.40;;;;;;;16.47;47.00;94121.75;4988146;28;20048;-75
2021/09/16 03:20:02;;;;;;;11.88;7.40;;;;;;;16.59;46.98;94135.13;4986135;28;20469;-75
2021/09/16 03:22:28;;;;;;;15.05;7.53;;;;;;;16.58;46.61;94125.50;4984645;28;20048;-76
2021/09/16 03:24:53;;;;;;;9.27;8.13;;;;;;;16.66;46.65;94136.13;4988090;28;20033;-75
2021/09/16 03:27:18;;;;;;;8.00;6.97;;;;;;;16.58;46.75;94115.53;4982316;28;20436;-75
2021/09/16 03:29:44;;;;;;;10.57;7.82;;;;;;;16.50;46.74;94116.47;4985711;28;20046;-75
2021/09/16 03:32:09;;;;;;;8.68;7.53;;;;;;;16.46;46.78;94125.56;4985163;28;20524;-75
2021/09/16 03:34:34;;;;;;;11.07;8.18;;;;;;;16.39;46.88;94120.00;4989598;28;20061;-75
2021/09/16 03:37:00;;;;;;;10.93;8.90;;;;;;;16.35;47.34;94127.97;4988651;28;20030;-75
2021/09/16 03:39:25;;;;;;;8.65;7.75;;;;;;;16.31;46.95;94122.50;4983391;28;20478;-75
2021/09/16 03:41:51;;;;;;;8.63;7.30;;;;;;;16.41;47.16;94144.59;4993769;28;20038;-75
2021/09/16 03:44:16;;;;;;;9.40;8.50;;;;;;;16.22;47.60;94132.56;4989731;28;20413;-75
2021/09/16 03:46:41;;;;;;;14.70;8.90;;;;;;;16.35;47.14;94135.22;4982274;28;20041;-75
2021/09/16 03:49:07;;;;;;;10.95;8.30;;;;;;;16.46;46.95;94157.78;4986978;28;20034;-75
2021/09/16 03:51:32;;;;;;;12.48;8.77;;;;;;;16.40;46.95;94129.63;4988017;28;20034;-75
2021/09/16 03:53:57;;;;;;;11.52;8.02;;;;;;;16.56;46.98;94151.94;4990257;28;20037;-75
2021/09/16 03:56:23;;;;;;;13.82;9.70;;;;;;;16.43;47.16;94142.38;4985648;28;20117;-75
2021/09/16 03:58:49;;;;;;;12.07;8.75;;;;;;;16.26;47.49;94138.81;4988653;28;20449;-75
2021/09/16 04:01:14;;;;;;;13.05;9.65;;;;;;;16.23;47.39;94131.41;4984730;28;20156;-75
2021/09/16 04:03:39;;;;;;;10.90;9.07;;;;;;;16.09;48.00;94122.97;4985272;28;20073;-75
2021/09/16 04:06:05;;;;;;;11.07;8.63;;;;;;;16.24;47.89;94135.66;4987832;28;20409;-74
2021/09/16 04:08:30;;;;;;;14.18;8.95;;;;;;;16.12;47.76;94114.25;4986566;28;20100;-77
2021/09/16 04:10:55;;;;;;;14.35;8.98;;;;;;;16.33;47.80;94132.13;4985739;28;20404;-75
2021/09/16 04:13:21;;;;;;;10.18;8.32;;;;;;;16.18;47.78;94110.19;4985485;28;20497;-75
2021/09/16 04:15:46;;;;;;;12.68;8.73;;;;;;;16.30;47.64;94145.09;4988882;28;20085;-75
2021/09/16 04:18:11;;;;;;;13.25;8.15;;;;;;;16.14;47.90;94133.47;4987094;28;20145;-75
2021/09/16 04:20:37;;;;;;;9.50;7.65;;;;;;;16.13;48.08;94137.28;4982443;28;20042;-75
2021/09/16 04:23:02;;;;;;;20.83;9.05;;;;;;;16.21;47.98;94152.47;4987628;28;20039;-76
2021/09/16 04:25:28;;;;;;;12.50;7.82;;;;;;;16.35;47.86;94152.13;4987352;28;20204;-75
2021/09/16 04:27:53;;;;;;;12.88;8.52;;;;;;;16.45;47.32;94135.53;4985836;28;20034;-75
2021/09/16 04:30:19;;;;;;;9.23;8.02;;;;;;;16.63;47.12;94158.25;4985436;28;20144;-74
2021/09/16 04:32:44;;;;;;;12.98;9.02;;;;;;;16.59;47.67;94157.38;4984750;28;20060;-75
2021/09/16 04:35:10;;;;;;;12.48;9.75;;;;;;;16.04;47.94;94103.63;4983980;28;20632;-75
2021/09/16 04:37:36;;;;;;;12.63;9.15;;;;;;;16.24;48.63;94156.34;4985066;28;20038;-77
2021/09/16 04:40:03;;;;;;;13.45;8.80;;;;;;;16.27;48.59;94156.47;4987330;28;20438;-76
2021/09/16 04:42:28;;;;;;;13.85;9.75;;;;;;;16.24;48.65;94167.88;4986201;28;20046;-76
2021/09/16 04:44:53;;;;;;;13.77;9.55;;;;;;;16.08;48.56;94129.47;4984461;28;20043;-75
2021/09/16 04:47:20;;;;;;;14.48;9.65;;;;;;;16.36;48.69;94179.75;4984835;28;20045;-76
2021/09/16 04:49:46;;;;;;;16.42;9.25;;;;;;;16.30;48.54;94158.50;4984523;28;20042;-76
2021/09/16 04:52:11;;;;;;;12.10;10.30;;;;;;;16.52;48.28;94173.31;4984560;28;20520;-76
2021/09/16 04:54:37;;;;;;;12.27;9.52;;;;;;;16.53;48.77;94168.69;4987443;28;20276;-75
2021/09/16 04:57:02;;;;;;;12.02;9.90;;;;;;;16.73;48.05;94168.50;4988647;28;20391;-76
2021/09/16 04:59:28;;;;;;;17.80;9.80;;;;;;;16.85;47.71;94170.38;4985248;28;20491;-76
2021/09/16 05:01:53;;;;;;;14.88;9.75;;;;;;;16.65;48.00;94152.56;4984741;28;20045;-77
2021/09/16 05:04:19;;;;;;;12.05;10.43;;;;;;;16.75;47.85;94150.16;4986562;28;20033;-77
2021/09/16 05:06:44;;;;;;;14.00;11.25;;;;;;;16.90;47.54;94170.13;4987107;28;20019;-76
2021/09/16 05:09:10;;;;;;;13.00;11.38;;;;;;;17.01;47.14;94168.47;4988072;28;20045;-75
2021/09/16 05:11:40;;;;;;;17.27;11.80;;;;;;;17.14;46.99;94182.66;4986491;28;20446;-76
2021/09/16 05:14:07;;;;;;;21.20;12.27;;;;;;;17.20;47.27;94185.88;4983388;28;20038;-75
2021/09/16 05:16:32;;;;;;;25.88;14.82;;;;;;;17.13;47.38;94160.38;4984727;28;20053;-76
2021/09/16 05:18:57;;;;;;;23.27;13.25;;;;;;;17.28;47.10;94183.03;4988481;28;20026;-77
2021/09/16 05:21:23;;;;;;;21.55;13.77;;;;;;;17.30;46.68;94185.38;4985037;28;20053;-76
2021/09/16 05:23:48;;;;;;;21.83;13.77;;;;;;;17.35;46.69;94190.50;4988628;28;20227;-76
2021/09/16 05:26:14;;;;;;;24.30;14.30;;;;;;;17.40;46.37;94195.63;4983461;28;20773;-76
2021/09/16 05:28:39;;;;;;;17.17;13.07;;;;;;;17.32;46.12;94183.09;4984597;28;20092;-76
2021/09/16 05:31:04;;;;;;;21.48;16.73;;;;;;;17.48;46.08;94198.13;4986336;28;20557;-76
2021/09/16 05:33:30;;;;;;;20.20;14.93;;;;;;;17.52;46.08;94187.44;4985573;28;20030;-76
2021/09/16 05:35:55;;;;;;;22.30;14.48;;;;;;;17.58;45.88;94194.13;4987095;28;20050;-76
2021/09/16 05:38:21;;;;;;;30.17;15.00;;;;;;;17.71;45.54;94202.88;4985392;28;20065;-76
2021/09/16 05:40:46;;;;;;;21.55;14.52;;;;;;;17.72;45.47;94186.41;4984737;28;20042;-76
2021/09/16 05:43:12;;;;;;;25.92;14.55;;;;;;;17.86;45.71;94196.72;4985528;28;20149;-76
2021/09/16 05:45:38;;;;;;;22.95;14.50;;;;;;;17.95;45.21;94200.03;4977017;28;20574;-75
2021/09/16 05:48:04;;;;;;;25.55;16.38;;;;;;;17.91;45.29;94197.22;4982051;28;20088;-77
2021/09/16 05:50:30;;;;;;;19.75;15.05;;;;;;;17.94;45.43;94193.09;4985613;28;20103;-76
2021/09/16 05:52:55;;;;;;;34.67;16.60;;;;;;;18.01;45.16;94177.88;4979228;28;20725;-76
2021/09/16 05:55:21;;;;;;;23.95;15.95;;;;;;;18.08;45.31;94189.94;4981850;28;20513;-76
2021/09/16 05:57:46;;;;;;;26.13;16.17;;;;;;;17.90;45.10;94158.00;4986534;28;20635;-76
2021/09/16 06:00:12;;;;;;;21.42;16.65;;;;;;;18.03;45.17;94196.38;4982245;28;20045;-76
2021/09/16 06:02:38;;;;;;;20.58;15.40;;;;;;;18.22;44.88;94198.31;4986850;28;20089;-76
2021/09/16 06:05:04;;;;;;;23.52;15.32;;;;;;;18.30;44.59;94194.66;4990071;28;20582;-76
2021/09/16 06:07:30;;;;;;;44.33;17.05;;;;;;;18.33;44.82;94202.78;4988855;28;20046;-75
2021/09/16 06:09:55;;;;;;;34.03;17.45;;;;;;;18.19;44.94;94185.56;4986154;28;20048;-75
2021/09/16 06:12:20;;;;;;;45.92;18.27;;;;;;;17.95;45.21;94148.88;4987343;28;20262;-76
2021/09/16 06:14:46;;;;;;;28.73;17.85;;;;;;;18.19;45.12;94182.84;4984787;28;20065;-75
2021/09/16 06:17:12;;;;;;;27.00;16.83;;;;;;;18.16;45.26;94202.41;4984711;28;20053;-76
2021/09/16 06:19:38;;;;;;;31.85;17.52;;;;;;;18.40;45.23;94210.25;4989226;28;20121;-75
2021/09/16 06:22:04;;;;;;;34.05;17.98;;;;;;;18.58;44.89;94200.63;4987128;28;20034;-75
2021/09/16 06:24:30;;;;;;;29.52;18.40;;;;;;;18.65;44.52;94194.59;4988817;28;20034;-76
2021/09/16 06:26:55;;;;;;;35.97;17.73;;;;;;;18.73;44.59;94207.09;4986089;28;20065;-75
2021/09/16 06:29:21;;;;;;;35.10;18.83;;;;;;;18.65;43.52;94179.22;4990539;28;20543;-76
2021/09/16 06:31:46;;;;;;;28.85;19.63;;;;;;;18.80;43.99;94186.50;4987847;28;20046;-75
2021/09/16 06:34:12;;;;;;;30.23;19.92;;;;;;;19.05;43.98;94207.75;4985721;28;20337;-76
2021/09/16 06:36:37;;;;;;;28.95;19.48;;;;;;;19.07;43.90;94213.53;4990888;28;20037;-76
2021/09/16 06:39:03;;;;;;;37.63;19.13;;;;;;;19.04;43.72;94196.19;4988173;28;20472;-76
2021/09/16 06:41:29;;;;;;;28.35;18.13;;;;;;;19.33;42.97;94200.16;4985254;28;20034;-76
2021/09/16 06:43:54;;;;;;;31.92;18.63;;;;;;;19.49;42.20;94200.88;4984797;28;20042;-75
2021/09/16 06:46:20;;;;;;;27.35;18.33;;;;;;;19.53;42.75;94200.91;4982738;28;20457;-76
2021/09/16 06:48:45;;;;;;;28.90;18.67;;;;;;;19.48;42.22;94176.94;4986220;28;20065;-77
2021/09/16 06:51:11;;;;;;;34.33;19.08;;;;;;;19.66;42.38;94199.59;4985618;28;20508;-76
2021/09/16 06:53:36;;;;;;;36.25;19.35;;;;;;;19.67;42.71;94184.97;4985961;28;20539;-76
2021/09/16 06:56:02;;;;;;;32.08;20.85;;;;;;;19.72;43.10;94198.94;4985875;28;20092;-76
2021/09/16 06:58:27;;;;;;;30.48;19.23;;;;;;;19.74;41.87;94180.47;4985754;28;20057;-76
2021/09/16 07:00:53;;;;;;;30.27;20.65;;;;;;;19.56;41.75;94157.81;4985641;28;20293;-76
2021/09/16 07:03:18;;;;;;;34.58;20.27;;;;;;;19.82;41.87;94175.94;4984924;28;20038;-76
2021/09/16 07:05:43;;;;;;;38.95;20.42;;;;;;;20.01;42.36;94202.06;4982448;28;20133;-76
2021/09/16 07:08:09;;;;;;;32.85;20.55;;;;;;;19.97;41.93;94185.81;4983125;28;20046;-76
2021/09/16 07:10:34;;;;;;;28.98;20.05;;;;;;;20.21;41.41;94191.97;4988051;28;20030;-77
2021/09/16 07:13:00;;;;;;;28.25;18.55;;;;;;;20.21;41.92;94186.56;4982407;28;20026;-76
2021/09/16 07:15:25;;;;;;;36.17;21.98;;;;;;;20.09;41.69;94185.59;4983447;28;20055;-76
2021/09/16 07:17:50;;;;;;;24.48;17.70;;;;;;;19.95;41.35;94157.63;4986447;28;20038;-76
2021/09/16 07:20:16;;;;;;;21.58;15.43;;;;;;;20.23;40.74;94185.06;4985312;28;20045;-76
2021/09/16 07:22:41;;;;;;;22.15;15.50;;;;;;;20.34;41.16;94191.38;4986864;28;20678;-76
2021/09/16 07:25:08;;;;;;;23.92;16.83;;;;;;;20.28;41.67;94176.66;4985305;28;20061;-76
2021/09/16 07:27:35;;;;;;;26.58;13.40;;;;;;;20.57;41.05;94191.31;4987204;28;20050;-76
2021/09/16 07:30:01;;;;;;;23.08;13.48;;;;;;;20.57;40.35;94200.19;4986670;28;20599;-76
2021/09/16 07:32:27;;;;;;;15.60;13.05;;;;;;;20.61;40.45;94189.44;4986019;28;21204;-76
2021/09/16 07:34:52;;;;;;;15.73;11.50;;;;;;;20.83;38.34;94185.81;4982037;28;20041;-76
2021/09/16 07:37:18;;;;;;;26.67;12.95;;;;;;;20.82;38.77;94197.03;4985056;28;20112;-77
2021/09/16 07:39:43;;;;;;;21.98;13.70;;;;;;;20.80;39.11;94185.78;4984780;28;20037;-77
2021/09/16 07:42:09;;;;;;;19.60;14.15;;;;;;;20.71;40.06;94177.19;4984685;28;20500;-77
2021/09/16 07:44:34;;;;;;;20.42;13.98;;;;;;;20.68;40.25;94188.75;4984949;28;20074;-76
2021/09/16 07:47:00;;;;;;;15.07;12.35;;;;;;;20.84;39.85;94205.53;4984909;28;20041;-76
2021/09/16 07:49:25;;;;;;;23.27;12.40;;;;;;;20.93;40.10;94204.13;4985946;28;20042;-76
2021/09/16 07:51:51;;;;;;;23.13;13.43;;;;;;;20.90;39.79;94204.09;4984238;28;20027;-76
2021/09/16 07:54:16;;;;;;;24.00;14.07;;;;;;;20.78;40.34;94204.28;4986110;28;20040;-76
2021/09/16 07:56:41;;;;;;;23.52;13.10;;;;;;;21.01;40.20;94194.97;4984211;28;20432;-76
2021/09/16 07:59:07;;;;;;;21.02;13.32;;;;;;;21.22;39.56;94212.53;4984258;28;20050;-76
2021/09/16 08:01:34;;;;;;;19.83;14.25;;;;;;;21.35;39.77;94217.34;4981832;28;20175;-76
2021/09/16 08:03:59;;;;;;;19.30;14.90;;;;;;;21.45;38.73;94211.25;4985706;28;20523;-77
2021/09/16 08:06:25;;;;;;;18.75;15.23;;;;;;;21.45;38.40;94184.22;4978048;28;20029;-76
2021/09/16 08:08:50;;;;;;;23.30;16.27;;;;;;;21.48;39.19;94190.00;4981447;28;20578;-77
2021/09/16 08:11:16;;;;;;;24.75;17.10;;;;;;;21.45;38.88;94184.22;4982673;28;20049;-76
2021/09/16 08:13:41;;;;;;;26.55;18.05;;;;;;;20.99;39.13;94167.50;4981683;28;20050;-76
2021/09/16 08:16:07;;;;;;;24.92;17.42;;;;;;;21.39;39.06;94187.63;4982485;28;20503;-76
2021/09/16 08:18:32;;;;;;;39.63;17.88;;;;;;;21.36;39.37;94191.06;4982515;28;20516;-76
2021/09/16 08:20:58;;;;;;;25.15;17.98;;;;;;;21.59;38.89;94188.22;4983577;28;20050;-76
2021/09/16 08:23:24;;;;;;;20.23;15.85;;;;;;;21.83;39.63;94187.63;4981929;28;20501;-76
2021/09/16 08:25:49;;;;;;;27.98;15.75;;;;;;;21.85;40.11;94185.34;4984255;28;20521;-76
2021/09/16 08:28:15;;;;;;;21.45;14.55;;;;;;;21.93;39.96;94173.41;4982458;28;20050;-75
2021/09/16 08:30:42;;;;;;;23.70;15.20;;;;;;;21.87;38.89;94183.03;4986680;28;20041;-76
2021/09/16 08:33:07;;;;;;;23.63;14.48;;;;;;;21.90;39.50;94174.16;4984327;28;20069;-76
2021/09/16 08:35:33;;;;;;;25.73;14.23;;;;;;;22.12;40.15;94166.94;4988670;28;20802;-76
2021/09/16 08:37:59;;;;;;;20.52;14.30;;;;;;;22.17;39.56;94172.78;4985441;28;20500;-76
2021/09/16 08:40:25;;;;;;;19.05;14.25;;;;;;;22.08;39.21;94169.63;4980701;28;20444;-75
2021/09/16 08:42:51;;;;;;;21.42;13.65;;;;;;;22.02;38.91;94167.66;4985058;28;20033;-76
2021/09/16 08:45:18;;;;;;;23.52;15.13;;;;;;;22.15;39.02;94166.97;4984434;28;20697;-75
2021/09/16 08:47:46;;;;;;;20.17;14.52;;;;;;;22.20;38.97;94169.31;4981651;28;20056;-75
2021/09/16 08:50:13;;;;;;;22.25;14.23;;;;;;;22.45;38.37;94168.69;4980774;28;20068;-76
2021/09/16 08:52:41;;;;;;;26.17;14.45;;;;;;;22.23;38.47;94167.81;4983347;28;20139;-76
2021/09/16 08:55:12;;;;;;;21.90;13.40;;;;;;;22.24;39.12;94153.13;4976672;28;20056;-75
2021/09/16 08:57:42;;;;;;;19.92;13.50;;;;;;;22.16;38.83;94148.78;4980448;28;20025;-75
2021/09/16 09:00:15;;;;;;;23.27;14.27;;;;;;;22.11;38.52;94155.34;4977300;28;20078;-75
2021/09/16 09:02:43;;;;;;;20.73;13.80;;;;;;;22.16;39.37;94156.91;4982503;28;20038;-75
2021/09/16 09:05:09;;;;;;;27.40;15.60;;;;;;;22.08;38.47;94150.69;4983270;28;20528;-75
2021/09/16 09:07:45;;;;;;;21.20;13.77;;;;;;;22.29;38.76;94158.19;4989011;28;20045;-75
2021/09/16 09:10:33;;;;;;;25.02;13.77;;;;;;;22.47;39.15;94156.34;4982226;28;20524;-75
2021/09/16 09:12:59;;;;;;;22.85;13.18;;;;;;;22.59;38.29;94157.94;4980645;28;20049;-75
2021/09/16 09:15:25;;;;;;;21.55;13.10;;;;;;;22.74;38.76;94156.84;4980247;28;20764;-75
2021/09/16 09:18:08;;;;;;;19.25;11.80;;;;;;;22.66;37.71;94164.16;4980427;28;20340;-75
2021/09/16 09:20:52;;;;;;;24.38;11.77;;;;;;;22.69;37.99;94140.94;4994669;28;20045;-75
2021/09/16 09:23:28;;;;;;;28.35;13.30;;;;;;;22.42;37.75;94112.56;4980352;28;20513;-76
2021/09/16 09:26:00;;;;;;;16.85;12.73;;;;;;;22.69;37.77;94144.41;4992134;28;20034;-76
2021/09/16 09:28:34;;;;;;;22.60;11.98;;;;;;;22.85;38.06;94144.09;4978291;28;20068;-79
2021/09/16 09:31:14;;;;;;;16.40;10.73;;;;;;;22.93;37.74;94153.81;4989634;28;20025;-76
2021/09/16 09:33:39;;;;;;;17.55;11.23;;;;;;;22.93;37.57;94134.84;4987153;28;20045;-76
2021/09/16 09:36:08;;;;;;;16.40;10.25;;;;;;;23.13;37.23;94144.19;4986405;28;20045;-75
2021/09/16 09:38:56;;;;;;;17.08;10.88;;;;;;;23.25;36.78;94150.41;4989320;28;20433;-76
2021/09/16 09:41:33;;;;;;;18.33;11.05;;;;;;;23.39;37.96;94140.34;4989798;28;20393;-76
2021/09/16 09:44:09;;;;;;;20.42;11.43;;;;;;;23.39;37.05;94139.59;4985244;28;20093;-76
2021/09/16 09:46:39;;;;;;;16.80;10.20;;;;;;;23.39;37.09;94142.28;4988566;28;20444;-76
2021/09/16 09:49:07;;;;;;;14.43;10.07;;;;;;;23.39;37.06;94139.59;4987364;28;20030;-76
2021/09/16 09:51:37;;;;;;;19.85;10.07;;;;;;;23.35;36.70;94144.22;4986984;28;20019;-76
2021/09/16 09:54:40;;;;;;;19.25;10.82;;;;;;;23.37;36.77;94142.66;4987969;28;20399;-76
2021/09/16 09:57:18;;;;;;;17.67;11.20;;;;;;;23.46;37.06;94134.94;4971175;28;20045;-76
2021/09/16 10:00:00;;;;;;;24.33;10.45;;;;;;;23.70;36.51;94143.50;4992639;28;20521;-76
2021/09/16 10:02:29;;;;;;;21.63;11.48;;;;;;;23.71;36.04;94137.66;4984314;28;20038;-75
2021/09/16 10:04:55;;;;;;;23.15;11.30;;;;;;;23.83;35.49;94136.50;4984829;28;20080;-75
2021/09/16 10:07:34;;;;;;;12.93;10.18;;;;;;;24.00;35.42;94133.75;4985418;28;20129;-76
2021/09/16 10:10:01;;;;;;;22.63;10.77;;;;;;;24.22;35.43;94120.19;4987043;28;20173;-76
2021/09/16 10:12:28;;;;;;;14.23;9.05;;;;;;;24.24;35.71;94115.91;4984352;28;20075;-76
2021/09/16 10:14:54;;;;;;;21.42;10.60;;;;;;;24.30;34.93;94113.53;4978236;28;20042;-76
2021/09/16 10:17:19;;;;;;;16.98;10.05;;;;;;;24.18;34.69;94117.47;4980410;28;20046;-77
2021/09/16 10:19:45;;;;;;;18.05;9.65;;;;;;;24.13;35.11;94117.09;4988048;28;20583;-76
2021/09/16 10:22:12;;;;;;;18.73;10.00;;;;;;;24.13;35.40;94114.38;4984730;28;20054;-76
2021/09/16 10:24:38;;;;;;;16.20;9.73;;;;;;;24.25;35.47;94092.97;4967105;28;20081;-76
2021/09/16 10:27:28;;;;;;;19.83;10.57;;;;;;;24.43;34.17;94114.69;4986388;28;20038;-76
2021/09/16 10:29:53;;;;;;;15.85;10.73;;;;;;;24.46;37.55;94110.41;4992027;28;20393;-76
2021/09/16 10:32:18;;;;;;;17.92;10.20;;;;;;;24.42;34.43;94104.97;4986416;28;20034;-76
2021/09/16 10:34:46;;;;;;;16.58;9.70;;;;;;;24.22;34.63;94091.06;4991384;28;20042;-76
2021/09/16 10:37:17;;;;;;;14.57;9.93;;;;;;;24.31;34.51;94088.69;4985112;28;20565;-77
2021/09/16 10:39:44;;;;;;;13.50;9.80;;;;;;;24.53;34.46;94100.28;4984946;28;20133;-76
2021/09/16 10:42:11;;;;;;;19.15;10.00;;;;;;;24.59;34.51;94078.91;4988450;28;20034;-76
2021/09/16 10:44:38;;;;;;;19.75;9.93;;;;;;;24.74;34.23;94099.41;4984646;28;20370;-76
2021/09/16 10:47:32;;;;;;;17.80;9.85;;;;;;;24.93;33.88;94092.75;4981779;28;20066;-75
2021/09/16 10:50:20;;;;;;;25.83;10.57;;;;;;;24.91;33.82;94087.69;4977475;28;20330;-76
2021/09/16 10:52:45;;;;;;;17.92;9.75;;;;;;;24.88;33.71;94080.31;4983828;28;20046;-75
2021/09/16 10:55:10;;;;;;;12.88;8.23;;;;;;;25.04;34.01;94075.16;4985759;28;20524;-76
2021/09/16 10:57:39;;;;;;;21.48;9.40;;;;;;;24.96;35.16;94067.44;4986729;28;20029;-76
2021/09/16 11:00:09;;;;;;;17.05;9.05;;;;;;;24.99;33.20;94082.97;4987901;28;20468;-76
2021/09/16 11:02:40;;;;;;;17.33;8.30;;;;;;;25.17;32.69;94067.31;4985805;28;20038;-76
2021/09/16 11:05:12;;;;;;;14.70;8.15;;;;;;;25.24;31.79;94064.53;4984932;28;20038;-76
2021/09/16 11:07:38;;;;;;;15.35;8.32;;;;;;;25.18;32.35;94066.13;4993630;28;20129;-76
2021/09/16 11:10:15;;;;;;;15.50;8.95;;;;;;;25.09;32.49;94069.28;4985389;28;20030;-76
2021/09/16 11:12:53;;;;;;;8.50;7.05;;;;;;;24.86;29.69;94060.91;4988221;28;20301;-76
2021/09/16 11:15:31;;;;;;;14.52;6.88;;;;;;;24.81;30.36;94047.72;4991088;28;20042;-76
2021/09/16 11:18:19;;;;;;;11.70;8.30;;;;;;;24.99;30.41;94037.47;4986368;28;20619;-77
2021/09/16 11:20:46;;;;;;;9.68;6.05;;;;;;;25.33;30.15;94047.75;4986571;28;20381;-76
2021/09/16 11:23:13;;;;;;;9.60;5.88;;;;;;;25.30;27.63;94049.31;4990843;28;20145;-75